sensor_id;sensor_type;location;lat;lon;timestamp;temperature;humidity
81951;DHT22;71452;52.562;5.642;2023-12-28T00:02:11;10.50;73.20
81951;DHT22;71452;52.562;5.642;2023-12-28T00:04:40;10.50;73.30
81951;DHT22;71452;52.562;5.642;2023-12-28T00:07:09;10.50;73.30
81951;DHT22;71452;52.562;5.642;2023-12-28T00:09:39;10.60;73.20
81951;DHT22;71452;52.562;5.642;2023-12-28T00:12:08;10.70;73.10
81951;DHT22;71452;52.562;5.642;2023-12-28T00:14:40;10.60;73.10
81951;DHT22;71452;52.562;5.642;2023-12-28T00:17:09;10.70;73.00
81951;DHT22;71452;52.562;5.642;2023-12-28T00:19:38;10.70;72.90
81951;DHT22;71452;52.562;5.642;2023-12-28T00:22:07;10.70;73.10
81951;DHT22;71452;52.562;5.642;2023-12-28T00:24:36;10.70;73.00
81951;DHT22;71452;52.562;5.642;2023-12-28T00:27:05;10.70;73.00
81951;DHT22;71452;52.562;5.642;2023-12-28T00:29:34;10.70;73.00
81951;DHT22;71452;52.562;5.642;2023-12-28T00:32:07;10.60;73.10
81951;DHT22;71452;52.562;5.642;2023-12-28T00:34:36;10.60;73.20
81951;DHT22;71452;52.562;5.642;2023-12-28T00:37:05;10.60;73.20
81951;DHT22;71452;52.562;5.642;2023-12-28T00:39:35;10.60;73.20
81951;DHT22;71452;52.562;5.642;2023-12-28T00:42:05;10.60;73.20
81951;DHT22;71452;52.562;5.642;2023-12-28T00:44:34;10.60;73.30
81951;DHT22;71452;52.562;5.642;2023-12-28T00:47:07;10.60;73.40
81951;DHT22;71452;52.562;5.642;2023-12-28T00:49:37;10.60;73.50
81951;DHT22;71452;52.562;5.642;2023-12-28T00:52:06;10.60;73.50
81951;DHT22;71452;52.562;5.642;2023-12-28T00:54:35;10.60;73.60
81951;DHT22;71452;52.562;5.642;2023-12-28T00:57:05;10.50;73.70
81951;DHT22;71452;52.562;5.642;2023-12-28T00:59:34;10.50;73.80
81951;DHT22;71452;52.562;5.642;2023-12-28T01:02:03;10.50;73.80
81951;DHT22;71452;52.562;5.642;2023-12-28T01:04:35;10.50;74.00
81951;DHT22;71452;52.562;5.642;2023-12-28T01:07:04;10.50;74.00
81951;DHT22;71452;52.562;5.642;2023-12-28T01:09:33;10.50;74.10
81951;DHT22;71452;52.562;5.642;2023-12-28T01:12:04;10.50;74.10
81951;DHT22;71452;52.562;5.642;2023-12-28T01:14:33;10.50;74.10
81951;DHT22;71452;52.562;5.642;2023-12-28T01:17:02;10.50;74.10
81951;DHT22;71452;52.562;5.642;2023-12-28T01:19:31;10.50;74.20
81951;DHT22;71452;52.562;5.642;2023-12-28T01:22:03;10.50;74.30
81951;DHT22;71452;52.562;5.642;2023-12-28T01:24:32;10.50;74.20
81951;DHT22;71452;52.562;5.642;2023-12-28T01:27:03;10.50;74.20
81951;DHT22;71452;52.562;5.642;2023-12-28T01:29:32;10.50;74.30
81951;DHT22;71452;52.562;5.642;2023-12-28T01:32:04;10.50;74.40
81951;DHT22;71452;52.562;5.642;2023-12-28T01:34:33;10.50;74.40
81951;DHT22;71452;52.562;5.642;2023-12-28T01:37:04;10.50;74.40
81951;DHT22;71452;52.562;5.642;2023-12-28T01:39:34;10.50;74.60
81951;DHT22;71452;52.562;5.642;2023-12-28T01:42:03;10.50;74.60
81951;DHT22;71452;52.562;5.642;2023-12-28T01:44:32;10.50;74.70
81951;DHT22;71452;52.562;5.642;2023-12-28T01:47:02;10.50;74.80
81951;DHT22;71452;52.562;5.642;2023-12-28T01:49:32;10.50;74.80
81951;DHT22;71452;52.562;5.642;2023-12-28T01:52:06;10.60;74.70
81951;DHT22;71452;52.562;5.642;2023-12-28T01:54:36;10.60;74.80
81951;DHT22;71452;52.562;5.642;2023-12-28T01:57:07;10.60;74.80
81951;DHT22;71452;52.562;5.642;2023-12-28T01:59:37;10.60;74.80
81951;DHT22;71452;52.562;5.642;2023-12-28T02:02:07;10.60;74.80
81951;DHT22;71452;52.562;5.642;2023-12-28T02:04:36;10.60;74.90
81951;DHT22;71452;52.562;5.642;2023-12-28T02:07:08;10.60;74.80
81951;DHT22;71452;52.562;5.642;2023-12-28T02:09:37;10.60;75.00
81951;DHT22;71452;52.562;5.642;2023-12-28T02:12:07;10.70;74.90
81951;DHT22;71452;52.562;5.642;2023-12-28T02:14:36;10.60;75.00
81951;DHT22;71452;52.562;5.642;2023-12-28T02:17:10;10.60;75.10
81951;DHT22;71452;52.562;5.642;2023-12-28T02:19:47;10.70;75.00
81951;DHT22;71452;52.562;5.642;2023-12-28T02:22:23;10.70;74.90
81951;DHT22;71452;52.562;5.642;2023-12-28T02:25:13;10.80;74.90
81951;DHT22;71452;52.562;5.642;2023-12-28T02:27:44;10.80;74.80
81951;DHT22;71452;52.562;5.642;2023-12-28T02:30:17;10.80;74.70
81951;DHT22;71452;52.562;5.642;2023-12-28T02:32:54;10.90;74.60
81951;DHT22;71452;52.562;5.642;2023-12-28T02:35:31;10.90;74.50
81951;DHT22;71452;52.562;5.642;2023-12-28T02:38:03;10.90;74.50
81951;DHT22;71452;52.562;5.642;2023-12-28T02:40:38;10.90;74.40
81951;DHT22;71452;52.562;5.642;2023-12-28T02:43:08;11.00;74.20
81951;DHT22;71452;52.562;5.642;2023-12-28T02:45:38;11.00;74.20
81951;DHT22;71452;52.562;5.642;2023-12-28T02:48:07;11.00;74.10
81951;DHT22;71452;52.562;5.642;2023-12-28T02:50:37;11.00;73.90
81951;DHT22;71452;52.562;5.642;2023-12-28T02:53:06;11.10;73.60
81951;DHT22;71452;52.562;5.642;2023-12-28T02:55:38;11.10;73.60
81951;DHT22;71452;52.562;5.642;2023-12-28T02:58:07;11.10;73.50
81951;DHT22;71452;52.562;5.642;2023-12-28T03:00:36;11.10;73.40
81951;DHT22;71452;52.562;5.642;2023-12-28T03:03:05;11.10;73.40
81951;DHT22;71452;52.562;5.642;2023-12-28T03:05:34;11.10;73.30
81951;DHT22;71452;52.562;5.642;2023-12-28T03:08:04;11.00;73.30
81951;DHT22;71452;52.562;5.642;2023-12-28T03:10:34;11.00;73.20
81951;DHT22;71452;52.562;5.642;2023-12-28T03:13:05;11.10;73.10
81951;DHT22;71452;52.562;5.642;2023-12-28T03:15:34;11.10;73.10
81951;DHT22;71452;52.562;5.642;2023-12-28T03:18:04;11.10;73.00
81951;DHT22;71452;52.562;5.642;2023-12-28T03:20:33;11.10;73.00
81951;DHT22;71452;52.562;5.642;2023-12-28T03:23:03;11.10;73.00
81951;DHT22;71452;52.562;5.642;2023-12-28T03:25:32;11.10;72.90
81951;DHT22;71452;52.562;5.642;2023-12-28T03:28:01;11.10;73.00
81951;DHT22;71452;52.562;5.642;2023-12-28T03:30:32;11.10;73.00
81951;DHT22;71452;52.562;5.642;2023-12-28T03:33:01;11.10;73.00
81951;DHT22;71452;52.562;5.642;2023-12-28T03:35:30;11.10;73.00
81951;DHT22;71452;52.562;5.642;2023-12-28T03:38:00;11.10;72.80
81951;DHT22;71452;52.562;5.642;2023-12-28T03:40:29;11.10;72.80
81951;DHT22;71452;52.562;5.642;2023-12-28T03:42:58;11.20;72.50
81951;DHT22;71452;52.562;5.642;2023-12-28T03:45:27;11.20;72.40
81951;DHT22;71452;52.562;5.642;2023-12-28T03:47:59;11.20;72.50
81951;DHT22;71452;52.562;5.642;2023-12-28T03:50:28;11.20;72.50
81951;DHT22;71452;52.562;5.642;2023-12-28T03:52:57;11.10;72.60
81951;DHT22;71452;52.562;5.642;2023-12-28T03:55:26;11.10;72.60
81951;DHT22;71452;52.562;5.642;2023-12-28T03:57:55;11.10;72.50
81951;DHT22;71452;52.562;5.642;2023-12-28T04:00:24;11.10;72.50
81951;DHT22;71452;52.562;5.642;2023-12-28T04:02:53;11.10;72.40
81951;DHT22;71452;52.562;5.642;2023-12-28T04:05:27;11.10;72.40
81951;DHT22;71452;52.562;5.642;2023-12-28T04:07:57;11.10;72.40
81951;DHT22;71452;52.562;5.642;2023-12-28T04:10:29;11.10;72.40
81951;DHT22;71452;52.562;5.642;2023-12-28T04:12:59;11.10;72.60
81951;DHT22;71452;52.562;5.642;2023-12-28T04:15:29;11.00;72.50
81951;DHT22;71452;52.562;5.642;2023-12-28T04:17:58;11.00;72.60
81951;DHT22;71452;52.562;5.642;2023-12-28T04:20:31;11.00;72.70
81951;DHT22;71452;52.562;5.642;2023-12-28T04:23:00;10.90;72.70
81951;DHT22;71452;52.562;5.642;2023-12-28T04:25:29;11.00;72.60
81951;DHT22;71452;52.562;5.642;2023-12-28T04:27:59;10.90;72.60
81951;DHT22;71452;52.562;5.642;2023-12-28T04:30:28;10.90;72.60
81951;DHT22;71452;52.562;5.642;2023-12-28T04:32:57;10.90;72.60
81951;DHT22;71452;52.562;5.642;2023-12-28T04:35:26;11.00;72.70
81951;DHT22;71452;52.562;5.642;2023-12-28T04:37:57;10.90;72.70
81951;DHT22;71452;52.562;5.642;2023-12-28T04:40:27;10.90;72.70
81951;DHT22;71452;52.562;5.642;2023-12-28T04:42:56;10.90;72.70
81951;DHT22;71452;52.562;5.642;2023-12-28T04:45:25;10.90;72.70
81951;DHT22;71452;52.562;5.642;2023-12-28T04:47:54;10.90;72.80
81951;DHT22;71452;52.562;5.642;2023-12-28T04:50:23;11.00;72.70
81951;DHT22;71452;52.562;5.642;2023-12-28T04:52:52;11.00;72.60
81951;DHT22;71452;52.562;5.642;2023-12-28T04:55:24;11.00;72.70
81951;DHT22;71452;52.562;5.642;2023-12-28T04:57:53;11.00;72.70
81951;DHT22;71452;52.562;5.642;2023-12-28T05:00:22;11.00;72.50
81951;DHT22;71452;52.562;5.642;2023-12-28T05:02:51;11.00;72.50
81951;DHT22;71452;52.562;5.642;2023-12-28T05:05:20;11.00;72.50
81951;DHT22;71452;52.562;5.642;2023-12-28T05:07:49;11.00;72.40
81951;DHT22;71452;52.562;5.642;2023-12-28T05:10:18;11.10;72.20
81951;DHT22;71452;52.562;5.642;2023-12-28T05:12:50;11.00;72.30
81951;DHT22;71452;52.562;5.642;2023-12-28T05:15:19;11.10;72.30
81951;DHT22;71452;52.562;5.642;2023-12-28T05:17:48;11.10;72.30
81951;DHT22;71452;52.562;5.642;2023-12-28T05:20:17;11.10;72.40
81951;DHT22;71452;52.562;5.642;2023-12-28T05:22:46;11.10;72.40
81951;DHT22;71452;52.562;5.642;2023-12-28T05:25:16;11.10;72.20
81951;DHT22;71452;52.562;5.642;2023-12-28T05:27:45;11.10;71.90
81951;DHT22;71452;52.562;5.642;2023-12-28T05:30:16;11.10;71.80
81951;DHT22;71452;52.562;5.642;2023-12-28T05:32:46;11.10;71.80
81951;DHT22;71452;52.562;5.642;2023-12-28T05:35:15;11.10;71.60
81951;DHT22;71452;52.562;5.642;2023-12-28T05:37:44;11.10;71.50
81951;DHT22;71452;52.562;5.642;2023-12-28T05:40:13;11.20;71.40
81951;DHT22;71452;52.562;5.642;2023-12-28T05:42:42;11.20;71.20
81951;DHT22;71452;52.562;5.642;2023-12-28T05:45:12;11.20;71.30
81951;DHT22;71452;52.562;5.642;2023-12-28T05:47:43;11.10;71.20
81951;DHT22;71452;52.562;5.642;2023-12-28T05:50:13;11.10;71.50
81951;DHT22;71452;52.562;5.642;2023-12-28T05:52:42;11.10;71.40
81951;DHT22;71452;52.562;5.642;2023-12-28T05:55:11;11.10;71.60
81951;DHT22;71452;52.562;5.642;2023-12-28T05:57:40;11.10;71.40
81951;DHT22;71452;52.562;5.642;2023-12-28T06:00:10;11.20;71.20
81951;DHT22;71452;52.562;5.642;2023-12-28T06:02:42;11.20;71.10
81951;DHT22;71452;52.562;5.642;2023-12-28T06:05:12;11.30;71.20
81951;DHT22;71452;52.562;5.642;2023-12-28T06:07:41;11.30;71.20
81951;DHT22;71452;52.562;5.642;2023-12-28T06:10:10;11.30;71.20
81951;DHT22;71452;52.562;5.642;2023-12-28T06:12:39;11.30;71.20
81951;DHT22;71452;52.562;5.642;2023-12-28T06:15:09;11.30;71.10
81951;DHT22;71452;52.562;5.642;2023-12-28T06:17:38;11.30;71.00
81951;DHT22;71452;52.562;5.642;2023-12-28T06:20:11;11.30;71.00
81951;DHT22;71452;52.562;5.642;2023-12-28T06:22:40;11.30;71.00
81951;DHT22;71452;52.562;5.642;2023-12-28T06:25:11;11.30;71.00
81951;DHT22;71452;52.562;5.642;2023-12-28T06:27:40;11.40;71.00
81951;DHT22;71452;52.562;5.642;2023-12-28T06:30:11;11.40;70.90
81951;DHT22;71452;52.562;5.642;2023-12-28T06:32:40;11.40;70.70
81951;DHT22;71452;52.562;5.642;2023-12-28T06:35:12;11.40;70.60
81951;DHT22;71452;52.562;5.642;2023-12-28T06:37:42;11.40;70.70
81951;DHT22;71452;52.562;5.642;2023-12-28T06:40:12;11.40;70.70
81951;DHT22;71452;52.562;5.642;2023-12-28T06:42:41;11.40;70.50
81951;DHT22;71452;52.562;5.642;2023-12-28T06:45:10;11.40;70.50
81951;DHT22;71452;52.562;5.642;2023-12-28T06:47:39;11.50;70.60
81951;DHT22;71452;52.562;5.642;2023-12-28T06:50:11;11.50;70.40
81951;DHT22;71452;52.562;5.642;2023-12-28T06:52:40;11.50;70.30
81951;DHT22;71452;52.562;5.642;2023-12-28T06:55:09;11.50;70.30
81951;DHT22;71452;52.562;5.642;2023-12-28T06:57:38;11.50;70.40
81951;DHT22;71452;52.562;5.642;2023-12-28T07:00:08;11.50;70.40
81951;DHT22;71452;52.562;5.642;2023-12-28T07:02:37;11.50;70.50
81951;DHT22;71452;52.562;5.642;2023-12-28T07:05:07;11.50;70.40
81951;DHT22;71452;52.562;5.642;2023-12-28T07:07:41;11.50;70.30
81951;DHT22;71452;52.562;5.642;2023-12-28T07:10:10;11.50;70.10
81951;DHT22;71452;52.562;5.642;2023-12-28T07:12:39;11.50;70.10
81951;DHT22;71452;52.562;5.642;2023-12-28T07:15:09;11.50;70.10
81951;DHT22;71452;52.562;5.642;2023-12-28T07:17:40;11.50;70.00
81951;DHT22;71452;52.562;5.642;2023-12-28T07:20:09;11.50;70.20
81951;DHT22;71452;52.562;5.642;2023-12-28T07:22:41;11.50;70.10
81951;DHT22;71452;52.562;5.642;2023-12-28T07:25:10;11.50;70.00
81951;DHT22;71452;52.562;5.642;2023-12-28T07:27:39;11.50;69.90
81951;DHT22;71452;52.562;5.642;2023-12-28T07:30:09;11.50;69.80
81951;DHT22;71452;52.562;5.642;2023-12-28T07:32:39;11.60;69.80
81951;DHT22;71452;52.562;5.642;2023-12-28T07:35:08;11.50;69.80
81951;DHT22;71452;52.562;5.642;2023-12-28T07:37:37;11.50;69.90
81951;DHT22;71452;52.562;5.642;2023-12-28T07:40:11;11.50;69.80
81951;DHT22;71452;52.562;5.642;2023-12-28T07:42:40;11.50;69.90
81951;DHT22;71452;52.562;5.642;2023-12-28T07:45:09;11.50;69.90
81951;DHT22;71452;52.562;5.642;2023-12-28T07:47:38;11.50;69.90
81951;DHT22;71452;52.562;5.642;2023-12-28T07:50:08;11.50;69.90
81951;DHT22;71452;52.562;5.642;2023-12-28T07:56:05;11.50;69.90
81951;DHT22;71452;52.562;5.642;2023-12-28T07:58:34;11.50;69.70
81951;DHT22;71452;52.562;5.642;2023-12-28T08:01:09;11.50;69.80
81951;DHT22;71452;52.562;5.642;2023-12-28T08:03:38;11.50;69.90
81951;DHT22;71452;52.562;5.642;2023-12-28T08:06:07;11.50;69.80
81951;DHT22;71452;52.562;5.642;2023-12-28T08:08:38;11.40;69.90
81951;DHT22;71452;52.562;5.642;2023-12-28T08:11:10;11.40;69.90
81951;DHT22;71452;52.562;5.642;2023-12-28T08:13:39;11.40;70.00
81951;DHT22;71452;52.562;5.642;2023-12-28T08:16:08;11.40;69.90
81951;DHT22;71452;52.562;5.642;2023-12-28T08:18:37;11.50;69.90
81951;DHT22;71452;52.562;5.642;2023-12-28T08:21:06;11.50;69.80
81951;DHT22;71452;52.562;5.642;2023-12-28T08:23:35;11.50;69.90
81951;DHT22;71452;52.562;5.642;2023-12-28T08:26:04;11.50;69.90
81951;DHT22;71452;52.562;5.642;2023-12-28T08:28:36;11.50;69.90
81951;DHT22;71452;52.562;5.642;2023-12-28T08:31:05;11.50;70.00
81951;DHT22;71452;52.562;5.642;2023-12-28T08:33:34;11.50;69.90
81951;DHT22;71452;52.562;5.642;2023-12-28T08:36:06;11.50;70.00
81951;DHT22;71452;52.562;5.642;2023-12-28T08:38:35;11.50;70.10
81951;DHT22;71452;52.562;5.642;2023-12-28T08:41:04;11.50;70.20
81951;DHT22;71452;52.562;5.642;2023-12-28T08:43:38;11.50;70.20
81951;DHT22;71452;52.562;5.642;2023-12-28T08:46:07;11.50;70.30
81951;DHT22;71452;52.562;5.642;2023-12-28T08:48:37;11.50;70.30
81951;DHT22;71452;52.562;5.642;2023-12-28T08:51:06;11.50;70.20
81951;DHT22;71452;52.562;5.642;2023-12-28T08:53:35;11.50;70.10
81951;DHT22;71452;52.562;5.642;2023-12-28T08:56:13;11.50;70.10
81951;DHT22;71452;52.562;5.642;2023-12-28T08:58:45;11.50;70.00
81951;DHT22;71452;52.562;5.642;2023-12-28T09:01:16;11.50;70.00
81951;DHT22;71452;52.562;5.642;2023-12-28T09:03:48;11.50;69.80
81951;DHT22;71452;52.562;5.642;2023-12-28T09:06:18;11.60;69.80
81951;DHT22;71452;52.562;5.642;2023-12-28T09:08:48;11.50;69.90
81951;DHT22;71452;52.562;5.642;2023-12-28T09:11:18;11.60;69.80
81951;DHT22;71452;52.562;5.642;2023-12-28T09:13:50;11.60;69.70
81951;DHT22;71452;52.562;5.642;2023-12-28T09:16:19;11.60;69.80
81951;DHT22;71452;52.562;5.642;2023-12-28T09:18:48;11.60;69.80
81951;DHT22;71452;52.562;5.642;2023-12-28T09:21:17;11.70;69.60
81951;DHT22;71452;52.562;5.642;2023-12-28T09:23:47;11.70;69.60
81951;DHT22;71452;52.562;5.642;2023-12-28T09:26:16;11.70;69.60
81951;DHT22;71452;52.562;5.642;2023-12-28T09:28:45;11.70;69.70
81951;DHT22;71452;52.562;5.642;2023-12-28T09:31:17;11.70;69.80
81951;DHT22;71452;52.562;5.642;2023-12-28T09:33:46;11.70;69.70
81951;DHT22;71452;52.562;5.642;2023-12-28T09:36:15;11.70;69.70
81951;DHT22;71452;52.562;5.642;2023-12-28T09:38:44;11.70;69.90
81951;DHT22;71452;52.562;5.642;2023-12-28T09:41:15;11.70;69.80
81951;DHT22;71452;52.562;5.642;2023-12-28T09:43:51;11.70;69.70
81951;DHT22;71452;52.562;5.642;2023-12-28T09:46:24;11.70;69.70
81951;DHT22;71452;52.562;5.642;2023-12-28T09:48:55;11.70;69.80
81951;DHT22;71452;52.562;5.642;2023-12-28T09:51:25;11.70;69.70
81951;DHT22;71452;52.562;5.642;2023-12-28T09:53:54;11.70;69.60
81951;DHT22;71452;52.562;5.642;2023-12-28T09:56:23;11.80;69.80
81951;DHT22;71452;52.562;5.642;2023-12-28T09:58:53;11.80;69.80
81951;DHT22;71452;52.562;5.642;2023-12-28T10:01:26;11.80;69.80
81951;DHT22;71452;52.562;5.642;2023-12-28T10:03:55;11.80;69.80
81951;DHT22;71452;52.562;5.642;2023-12-28T10:06:24;11.90;69.70
81951;DHT22;71452;52.562;5.642;2023-12-28T10:08:53;11.90;69.70
81951;DHT22;71452;52.562;5.642;2023-12-28T10:11:22;11.90;69.80
81951;DHT22;71452;52.562;5.642;2023-12-28T10:13:53;11.90;69.60
81951;DHT22;71452;52.562;5.642;2023-12-28T10:16:26;11.80;69.90
81951;DHT22;71452;52.562;5.642;2023-12-28T10:18:55;11.80;69.90
81951;DHT22;71452;52.562;5.642;2023-12-28T10:21:26;11.80;69.80
81951;DHT22;71452;52.562;5.642;2023-12-28T10:23:57;11.90;69.60
81951;DHT22;71452;52.562;5.642;2023-12-28T10:26:26;11.90;69.60
81951;DHT22;71452;52.562;5.642;2023-12-28T10:28:58;11.90;69.50
81951;DHT22;71452;52.562;5.642;2023-12-28T10:31:30;11.90;69.50
81951;DHT22;71452;52.562;5.642;2023-12-28T10:34:00;11.90;69.40
81951;DHT22;71452;52.562;5.642;2023-12-28T10:36:29;11.90;69.40
81951;DHT22;71452;52.562;5.642;2023-12-28T10:39:00;11.90;69.40
81951;DHT22;71452;52.562;5.642;2023-12-28T10:41:30;11.90;69.30
81951;DHT22;71452;52.562;5.642;2023-12-28T10:44:03;12.00;69.10
81951;DHT22;71452;52.562;5.642;2023-12-28T10:46:39;12.00;68.90
81951;DHT22;71452;52.562;5.642;2023-12-28T10:49:11;12.00;69.10
81951;DHT22;71452;52.562;5.642;2023-12-28T10:51:42;12.00;69.00
81951;DHT22;71452;52.562;5.642;2023-12-28T10:54:22;12.00;69.00
81951;DHT22;71452;52.562;5.642;2023-12-28T10:56:59;12.00;69.10
81951;DHT22;71452;52.562;5.642;2023-12-28T10:59:39;12.00;69.20
81951;DHT22;71452;52.562;5.642;2023-12-28T11:02:15;12.00;69.20
81951;DHT22;71452;52.562;5.642;2023-12-28T11:04:49;12.10;69.20
81951;DHT22;71452;52.562;5.642;2023-12-28T11:07:19;12.10;69.10
81951;DHT22;71452;52.562;5.642;2023-12-28T11:09:49;12.10;69.10
81951;DHT22;71452;52.562;5.642;2023-12-28T11:12:21;12.00;69.30
81951;DHT22;71452;52.562;5.642;2023-12-28T11:14:50;12.00;69.20
81951;DHT22;71452;52.562;5.642;2023-12-28T11:17:23;12.00;69.40
81951;DHT22;71452;52.562;5.642;2023-12-28T11:19:53;12.00;69.50
81951;DHT22;71452;52.562;5.642;2023-12-28T11:22:23;12.00;69.60
81951;DHT22;71452;52.562;5.642;2023-12-28T11:24:53;12.00;69.60
81951;DHT22;71452;52.562;5.642;2023-12-28T11:27:22;11.90;69.50
81951;DHT22;71452;52.562;5.642;2023-12-28T11:29:52;12.00;69.40
81951;DHT22;71452;52.562;5.642;2023-12-28T11:32:24;12.00;69.20
81951;DHT22;71452;52.562;5.642;2023-12-28T11:34:57;12.00;69.20
81951;DHT22;71452;52.562;5.642;2023-12-28T11:37:27;12.00;69.20
81951;DHT22;71452;52.562;5.642;2023-12-28T11:39:58;12.00;69.00
81951;DHT22;71452;52.562;5.642;2023-12-28T11:42:27;12.00;68.90
81951;DHT22;71452;52.562;5.642;2023-12-28T11:44:56;12.00;68.90
81951;DHT22;71452;52.562;5.642;2023-12-28T11:47:28;12.00;69.00
81951;DHT22;71452;52.562;5.642;2023-12-28T11:50:06;12.00;68.70
81951;DHT22;71452;52.562;5.642;2023-12-28T11:52:35;12.00;68.70
81951;DHT22;71452;52.562;5.642;2023-12-28T11:55:04;12.10;68.60
81951;DHT22;71452;52.562;5.642;2023-12-28T11:57:34;12.10;68.30
81951;DHT22;71452;52.562;5.642;2023-12-28T12:00:08;12.20;68.20
81951;DHT22;71452;52.562;5.642;2023-12-28T12:02:43;12.20;68.00
81951;DHT22;71452;52.562;5.642;2023-12-28T12:05:14;12.20;68.10
81951;DHT22;71452;52.562;5.642;2023-12-28T12:07:43;12.20;68.20
81951;DHT22;71452;52.562;5.642;2023-12-28T12:10:15;12.20;68.20
81951;DHT22;71452;52.562;5.642;2023-12-28T12:12:44;12.20;68.10
81951;DHT22;71452;52.562;5.642;2023-12-28T12:15:13;12.20;68.10
81951;DHT22;71452;52.562;5.642;2023-12-28T12:17:45;12.30;67.70
81951;DHT22;71452;52.562;5.642;2023-12-28T12:20:14;12.30;67.90
81951;DHT22;71452;52.562;5.642;2023-12-28T12:22:43;12.20;68.10
81951;DHT22;71452;52.562;5.642;2023-12-28T12:25:12;12.20;68.00
81951;DHT22;71452;52.562;5.642;2023-12-28T12:27:41;12.20;68.10
81951;DHT22;71452;52.562;5.642;2023-12-28T12:30:11;12.30;68.00
81951;DHT22;71452;52.562;5.642;2023-12-28T12:32:40;12.20;68.00
81951;DHT22;71452;52.562;5.642;2023-12-28T12:35:12;12.20;68.10
81951;DHT22;71452;52.562;5.642;2023-12-28T12:37:41;12.20;68.00
81951;DHT22;71452;52.562;5.642;2023-12-28T12:40:12;12.20;68.00
81951;DHT22;71452;52.562;5.642;2023-12-28T12:42:41;12.20;68.20
81951;DHT22;71452;52.562;5.642;2023-12-28T12:45:11;12.20;68.30
81951;DHT22;71452;52.562;5.642;2023-12-28T12:47:40;12.20;68.10
81951;DHT22;71452;52.562;5.642;2023-12-28T12:50:12;12.10;68.20
81951;DHT22;71452;52.562;5.642;2023-12-28T12:52:41;12.10;68.40
81951;DHT22;71452;52.562;5.642;2023-12-28T12:55:11;12.10;68.30
81951;DHT22;71452;52.562;5.642;2023-12-28T12:57:41;12.10;68.20
81951;DHT22;71452;52.562;5.642;2023-12-28T13:00:11;12.10;68.20
81951;DHT22;71452;52.562;5.642;2023-12-28T13:02:40;12.10;68.20
81951;DHT22;71452;52.562;5.642;2023-12-28T13:05:11;12.10;68.20
81951;DHT22;71452;52.562;5.642;2023-12-28T13:07:41;12.10;68.20
81951;DHT22;71452;52.562;5.642;2023-12-28T13:10:10;12.10;68.30
81951;DHT22;71452;52.562;5.642;2023-12-28T13:12:39;12.10;68.40
81951;DHT22;71452;52.562;5.642;2023-12-28T13:15:09;12.10;68.10
81951;DHT22;71452;52.562;5.642;2023-12-28T13:17:38;12.10;67.90
81951;DHT22;71452;52.562;5.642;2023-12-28T13:20:12;12.20;67.80
81951;DHT22;71452;52.562;5.642;2023-12-28T13:22:41;12.10;67.80
81951;DHT22;71452;52.562;5.642;2023-12-28T13:25:10;12.10;68.00
81951;DHT22;71452;52.562;5.642;2023-12-28T13:27:39;12.20;67.70
81951;DHT22;71452;52.562;5.642;2023-12-28T13:30:09;12.20;67.80
81951;DHT22;71452;52.562;5.642;2023-12-28T13:32:39;12.20;67.90
81951;DHT22;71452;52.562;5.642;2023-12-28T13:35:08;12.20;67.90
81951;DHT22;71452;52.562;5.642;2023-12-28T13:37:39;12.20;67.50
81951;DHT22;71452;52.562;5.642;2023-12-28T13:40:09;12.20;67.50
81951;DHT22;71452;52.562;5.642;2023-12-28T13:42:39;12.20;67.80
81951;DHT22;71452;52.562;5.642;2023-12-28T13:45:08;12.20;67.70
81951;DHT22;71452;52.562;5.642;2023-12-28T13:47:38;12.20;67.80
81951;DHT22;71452;52.562;5.642;2023-12-28T13:50:08;12.10;68.00
81951;DHT22;71452;52.562;5.642;2023-12-28T13:52:39;12.10;68.00
81951;DHT22;71452;52.562;5.642;2023-12-28T13:55:08;12.10;68.10
81951;DHT22;71452;52.562;5.642;2023-12-28T13:57:37;12.10;68.20
81951;DHT22;71452;52.562;5.642;2023-12-28T14:00:07;12.10;67.70
81951;DHT22;71452;52.562;5.642;2023-12-28T14:02:41;12.10;67.80
81951;DHT22;71452;52.562;5.642;2023-12-28T14:05:10;12.10;67.90
81951;DHT22;71452;52.562;5.642;2023-12-28T14:07:42;12.10;68.00
81951;DHT22;71452;52.562;5.642;2023-12-28T14:10:11;12.10;67.90
81951;DHT22;71452;52.562;5.642;2023-12-28T14:12:40;12.00;68.00
81951;DHT22;71452;52.562;5.642;2023-12-28T14:15:09;12.10;68.00
81951;DHT22;71452;52.562;5.642;2023-12-28T14:17:41;12.00;67.60
81951;DHT22;71452;52.562;5.642;2023-12-28T14:20:10;12.00;67.90
81951;DHT22;71452;52.562;5.642;2023-12-28T14:22:43;12.10;67.80
81951;DHT22;71452;52.562;5.642;2023-12-28T14:25:13;12.10;67.30
81951;DHT22;71452;52.562;5.642;2023-12-28T14:27:43;12.10;67.30
81951;DHT22;71452;52.562;5.642;2023-12-28T14:30:14;12.10;67.60
81951;DHT22;71452;52.562;5.642;2023-12-28T14:32:44;12.10;67.50
81951;DHT22;71452;52.562;5.642;2023-12-28T14:35:14;12.00;67.70
81951;DHT22;71452;52.562;5.642;2023-12-28T14:37:46;12.00;67.80
81951;DHT22;71452;52.562;5.642;2023-12-28T14:40:16;12.00;68.00
81951;DHT22;71452;52.562;5.642;2023-12-28T14:42:45;12.00;68.10
81951;DHT22;71452;52.562;5.642;2023-12-28T14:45:14;11.90;68.40
81951;DHT22;71452;52.562;5.642;2023-12-28T14:47:43;11.90;68.60
81951;DHT22;71452;52.562;5.642;2023-12-28T14:50:13;11.90;68.90
81951;DHT22;71452;52.562;5.642;2023-12-28T14:52:42;11.80;69.20
81951;DHT22;71452;52.562;5.642;2023-12-28T14:55:13;11.70;69.60
81951;DHT22;71452;52.562;5.642;2023-12-28T14:57:43;11.70;69.70
81951;DHT22;71452;52.562;5.642;2023-12-28T15:00:13;11.70;69.80
81951;DHT22;71452;52.562;5.642;2023-12-28T15:02:42;11.70;69.90
81951;DHT22;71452;52.562;5.642;2023-12-28T15:05:11;11.70;70.00
81951;DHT22;71452;52.562;5.642;2023-12-28T15:07:40;11.60;70.10
81951;DHT22;71452;52.562;5.642;2023-12-28T15:10:14;11.60;70.30
81951;DHT22;71452;52.562;5.642;2023-12-28T15:12:44;11.50;70.40
81951;DHT22;71452;52.562;5.642;2023-12-28T15:15:14;11.50;70.50
81951;DHT22;71452;52.562;5.642;2023-12-28T15:17:43;11.50;70.50
81951;DHT22;71452;52.562;5.642;2023-12-28T15:20:13;11.50;70.50
81951;DHT22;71452;52.562;5.642;2023-12-28T15:22:43;11.50;70.50
81951;DHT22;71452;52.562;5.642;2023-12-28T15:25:15;11.50;70.50
81951;DHT22;71452;52.562;5.642;2023-12-28T15:27:44;11.50;70.50
81951;DHT22;71452;52.562;5.642;2023-12-28T15:30:13;11.50;70.50
81951;DHT22;71452;52.562;5.642;2023-12-28T15:32:43;11.50;70.70
81951;DHT22;71452;52.562;5.642;2023-12-28T15:35:13;11.50;70.70
81951;DHT22;71452;52.562;5.642;2023-12-28T15:37:43;11.50;70.70
81951;DHT22;71452;52.562;5.642;2023-12-28T15:40:14;11.50;70.80
81951;DHT22;71452;52.562;5.642;2023-12-28T15:42:44;11.50;70.90
81951;DHT22;71452;52.562;5.642;2023-12-28T15:45:13;11.50;71.00
81951;DHT22;71452;52.562;5.642;2023-12-28T15:47:42;11.50;71.10
81951;DHT22;71452;52.562;5.642;2023-12-28T15:50:11;11.50;71.00
81951;DHT22;71452;52.562;5.642;2023-12-28T15:52:40;11.50;70.90